createdAt,value
2023-12-07T14:41:46.448Z,95037.00
2023-12-07T14:42:46.820Z,95033.00
2023-12-07T14:43:46.389Z,95034.00
2023-12-07T14:44:46.392Z,95035.00
2023-12-07T14:45:46.387Z,95034.00
2023-12-07T14:46:46.399Z,95035.00
2023-12-07T14:47:46.562Z,95035.00
2023-12-07T14:48:46.525Z,95034.00
2023-12-07T14:49:46.425Z,95032.00
2023-12-07T14:50:46.466Z,95032.00
2023-12-07T14:51:46.368Z,95030.00
2023-12-07T14:52:46.405Z,95030.00
2023-12-07T14:53:46.412Z,95032.00
2023-12-07T14:54:46.454Z,95038.00
2023-12-07T14:55:46.466Z,95039.00
2023-12-07T14:56:46.508Z,95039.00
2023-12-07T14:57:46.584Z,95044.00
2023-12-07T14:58:46.396Z,95047.00
2023-12-07T14:59:46.441Z,95050.00
2023-12-07T15:00:46.396Z,95049.00
2023-12-07T15:01:46.405Z,95047.00
2023-12-07T15:02:46.486Z,95047.00
2023-12-07T15:03:46.471Z,95047.00
2023-12-07T15:04:46.426Z,95047.00
2023-12-07T15:05:46.452Z,95045.00
2023-12-07T15:06:46.466Z,95048.00
2023-12-07T15:07:46.404Z,95046.00
2023-12-07T15:08:46.520Z,95047.00
2023-12-07T15:09:46.436Z,95044.00
2023-12-07T15:10:46.444Z,95044.00
2023-12-07T15:11:46.494Z,95048.00
2023-12-07T15:12:46.450Z,95050.00
2023-12-07T15:13:46.452Z,95051.00
2023-12-07T15:14:46.544Z,95055.00
2023-12-07T15:15:46.400Z,95055.00
2023-12-07T15:16:46.422Z,95056.00
2023-12-07T15:17:46.530Z,95060.00
2023-12-07T15:18:46.572Z,95059.00
2023-12-07T15:19:46.552Z,95057.00
2023-12-07T15:20:46.558Z,95061.00
2023-12-07T15:21:46.436Z,95060.00
2023-12-07T15:22:46.438Z,95063.00
2023-12-07T15:23:47.054Z,95063.00
2023-12-07T15:24:46.498Z,95059.00
2023-12-07T15:25:46.436Z,95053.00
2023-12-07T15:26:46.537Z,95060.00
2023-12-07T15:27:46.514Z,95062.00
2023-12-07T15:28:46.561Z,95062.00
2023-12-07T15:29:46.625Z,95067.00
2023-12-07T15:30:46.603Z,95069.00
2023-12-07T15:31:46.620Z,95066.00
2023-12-07T15:32:46.747Z,95067.00
2023-12-07T15:33:46.852Z,95066.00
2023-12-07T15:34:46.872Z,95062.00
2023-12-07T15:35:46.824Z,95062.00
2023-12-07T15:36:46.836Z,95061.00
2023-12-07T15:37:46.843Z,95062.00
2023-12-07T15:38:46.874Z,95063.00
2023-12-07T15:39:46.875Z,95064.00
2023-12-07T15:40:46.908Z,95065.00
2023-12-07T15:41:46.986Z,95065.00
2023-12-07T15:42:47.017Z,95066.00
2023-12-07T15:43:47.029Z,95060.00
2023-12-07T15:44:47.030Z,95062.00
2023-12-07T15:45:47.055Z,95060.00
2023-12-07T15:46:47.171Z,95060.00
2023-12-07T15:47:47.270Z,95061.00
2023-12-07T15:48:47.325Z,95060.00
2023-12-07T15:49:47.404Z,95059.00
2023-12-07T15:50:47.363Z,95064.00
2023-12-07T15:51:47.288Z,95063.00
2023-12-07T15:52:47.456Z,95058.00
2023-12-07T15:53:47.467Z,95056.00
2023-12-07T15:54:47.518Z,95056.00
2023-12-07T15:55:47.546Z,95058.00
2023-12-07T15:56:47.620Z,95054.00
2023-12-07T15:57:47.623Z,95058.00
2023-12-07T15:58:47.683Z,95057.00
2023-12-07T15:59:47.716Z,95053.00
2023-12-07T16:00:47.881Z,95053.00
2023-12-07T16:01:47.795Z,95056.00
2023-12-07T16:02:47.896Z,95057.00
2023-12-07T16:03:47.985Z,95064.00
2023-12-07T16:04:48.037Z,95065.00
2023-12-07T16:05:48.104Z,95067.00
2023-12-07T16:06:48.079Z,95061.00
2023-12-07T16:07:48.150Z,95067.00
2023-12-07T16:08:48.340Z,95067.00
2023-12-07T16:09:48.345Z,95060.00
2023-12-07T16:10:48.294Z,95059.00
2023-12-07T16:11:48.353Z,95061.00
2023-12-07T16:12:48.382Z,95055.00
2023-12-07T16:13:48.465Z,95057.00
2023-12-07T16:14:48.513Z,95061.00
2023-12-07T16:15:48.553Z,95060.00
2023-12-07T16:16:48.637Z,95060.00
2023-12-07T16:17:48.771Z,95068.00
2023-12-07T16:18:48.836Z,95058.00
2023-12-07T16:19:48.869Z,95062.00
2023-12-07T16:20:48.895Z,95057.00
2023-12-07T16:21:48.928Z,95050.00
2023-12-07T16:22:48.992Z,95060.00
2023-12-07T16:23:49.067Z,95051.00
2023-12-07T16:24:49.286Z,95052.00
2023-12-07T16:25:49.139Z,95053.00
2023-12-07T16:26:49.275Z,95052.00
2023-12-07T16:27:49.258Z,95057.00
2023-12-07T16:28:49.334Z,95051.00
2023-12-07T16:29:49.360Z,95055.00
2023-12-07T16:30:49.609Z,95057.00
2023-12-07T16:31:49.451Z,95056.00
2023-12-07T16:32:49.576Z,95062.00
2023-12-07T16:33:49.618Z,95063.00
2023-12-07T16:34:49.650Z,95064.00
2023-12-07T16:35:49.611Z,95066.00
2023-12-07T16:36:49.695Z,95065.00
2023-12-07T16:37:49.745Z,95068.00
2023-12-07T16:38:49.873Z,95071.00
2023-12-07T16:39:49.979Z,95072.00
2023-12-07T16:40:49.931Z,95070.00
2023-12-07T16:41:55.440Z,95077.00
2023-12-07T16:42:50.976Z,95072.00
2023-12-07T16:43:49.993Z,95074.00
2023-12-07T16:44:49.981Z,95073.00
2023-12-07T16:45:49.936Z,95075.00
2023-12-07T16:46:49.984Z,95076.00
2023-12-07T16:47:50.038Z,95074.00
2023-12-07T16:48:50.076Z,95072.00
2023-12-07T16:49:49.952Z,95070.00
2023-12-07T16:50:50.071Z,95065.00
2023-12-07T16:51:50.005Z,95067.00
2023-12-07T16:52:57.720Z,95066.00
2023-12-07T16:53:50.980Z,95060.00
2023-12-07T16:54:49.986Z,95068.00
2023-12-07T16:55:49.993Z,95062.00
2023-12-07T16:56:49.982Z,95070.00
2023-12-07T16:57:49.970Z,95066.00
2023-12-07T16:58:50.006Z,95067.00
2023-12-07T16:59:50.026Z,95065.00
2023-12-07T17:00:50.031Z,95065.00
2023-12-07T17:01:49.971Z,95063.00
2023-12-07T17:02:50.128Z,95062.00
2023-12-07T17:03:50.180Z,95065.00
2023-12-07T17:04:50.165Z,95063.00
2023-12-07T17:05:50.234Z,95064.00
2023-12-07T17:06:56.364Z,95065.00
2023-12-07T17:07:51.284Z,95068.00
2023-12-07T17:08:50.794Z,95066.00
2023-12-07T17:09:50.261Z,95068.00
2023-12-07T17:10:50.274Z,95067.00
2023-12-07T17:11:50.273Z,95067.00
2023-12-07T17:12:50.222Z,95065.00
2023-12-07T17:13:50.234Z,95066.00
2023-12-07T17:14:50.304Z,95065.00
2023-12-07T17:15:50.269Z,95066.00
2023-12-07T17:16:50.280Z,95067.00
2023-12-07T17:17:50.430Z,95065.00
2023-12-07T17:18:50.410Z,95062.00
2023-12-07T17:19:51.630Z,95060.00
2023-12-07T17:20:50.372Z,95058.00
2023-12-07T17:21:50.242Z,95058.00
2023-12-07T17:22:50.263Z,95059.00
2023-12-07T17:23:50.317Z,95061.00
2023-12-07T17:24:50.271Z,95063.00
2023-12-07T17:25:50.278Z,95066.00
2023-12-07T17:26:53.429Z,95069.00
2023-12-07T17:27:50.390Z,95062.00
2023-12-07T17:28:50.331Z,95063.00
2023-12-07T17:29:50.285Z,95064.00
2023-12-07T17:30:50.269Z,95065.00
2023-12-07T17:31:50.367Z,95064.00
2023-12-07T17:32:50.387Z,95061.00
2023-12-07T17:33:50.353Z,95058.00
2023-12-07T17:34:50.431Z,95061.00
2023-12-07T17:35:50.385Z,95061.00
2023-12-07T17:36:50.317Z,95060.00
2023-12-07T17:37:50.429Z,95063.00
2023-12-07T17:38:50.340Z,95061.00
2023-12-07T17:39:50.282Z,95061.00
2023-12-07T17:40:50.323Z,95061.00
2023-12-07T17:41:50.352Z,95060.00
2023-12-07T17:42:50.296Z,95063.00
2023-12-07T17:43:50.327Z,95059.00
2023-12-07T17:44:50.315Z,95056.00
2023-12-07T17:45:50.369Z,95051.00
2023-12-07T17:46:50.447Z,95049.00
2023-12-07T17:47:50.597Z,95045.00
2023-12-07T17:48:50.671Z,95043.00
2023-12-07T17:49:50.684Z,95042.00
2023-12-07T17:50:50.726Z,95038.00
2023-12-07T17:51:50.769Z,95037.00
2023-12-07T17:52:50.861Z,95040.00
2023-12-07T17:53:50.975Z,95034.00
2023-12-07T17:54:51.014Z,95034.00
2023-12-07T17:55:51.057Z,95034.00
2023-12-07T17:56:51.181Z,95031.00
2023-12-07T17:57:51.165Z,95030.00
2023-12-07T17:58:51.282Z,95032.00
2023-12-07T17:59:51.365Z,95038.00
2023-12-07T18:00:51.410Z,95034.00
2023-12-07T18:01:51.469Z,95032.00
2023-12-07T18:02:51.613Z,95030.00
2023-12-07T18:03:51.634Z,95031.00
2023-12-07T18:04:51.670Z,95028.00
2023-12-07T18:05:51.873Z,95027.00
2023-12-07T18:06:51.844Z,95029.00
2023-12-07T18:07:51.890Z,95032.00
2023-12-07T18:08:51.984Z,95030.00
2023-12-07T18:09:52.015Z,95029.00
2023-12-07T18:10:52.087Z,95029.00
2023-12-07T18:11:52.217Z,95030.00
2023-12-07T18:12:52.232Z,95023.00
2023-12-07T18:13:52.292Z,95022.00
2023-12-07T18:14:52.474Z,95021.00
2023-12-07T18:15:52.466Z,95020.00
2023-12-07T18:16:52.548Z,95017.00
2023-12-07T18:17:52.780Z,95018.00
2023-12-07T18:18:52.831Z,95016.00
2023-12-07T18:19:52.821Z,95016.00
2023-12-07T18:20:52.836Z,95013.00
2023-12-07T18:21:52.874Z,95012.00
2023-12-07T18:22:52.928Z,95011.00
2023-12-07T18:23:53.100Z,95007.00
2023-12-07T18:24:53.103Z,95005.00
2023-12-07T18:25:53.145Z,95009.00
2023-12-07T18:26:53.227Z,95006.00
2023-12-07T18:27:53.322Z,95012.00
2023-12-07T18:28:53.497Z,95009.00
2023-12-07T18:29:53.516Z,95010.00
2023-12-07T18:30:53.531Z,95010.00
2023-12-07T18:31:53.626Z,95010.00
2023-12-07T18:32:53.716Z,95009.00
2023-12-07T18:33:53.818Z,95009.00
2023-12-07T18:34:53.789Z,95011.00
2023-12-07T18:35:53.871Z,95006.00
2023-12-07T18:36:53.901Z,95005.00
2023-12-07T18:37:53.976Z,95003.00
2023-12-07T18:38:54.033Z,95004.00
2023-12-07T18:39:54.025Z,95005.00
2023-12-07T18:40:54.100Z,95003.00
2023-12-07T18:41:54.203Z,95002.00
2023-12-07T18:42:54.201Z,95001.00
2023-12-07T18:43:54.256Z,95003.00
2023-12-07T18:44:54.288Z,95003.00
2023-12-07T18:45:54.374Z,95001.00
2023-12-07T18:46:54.375Z,95000.00
2023-12-07T18:47:54.491Z,95003.00
2023-12-07T18:48:54.585Z,95002.00
2023-12-07T18:49:54.528Z,95003.00
2023-12-07T18:50:54.599Z,95004.00
2023-12-07T18:51:54.564Z,95004.00
2023-12-07T18:52:54.628Z,95006.00
2023-12-07T18:53:54.686Z,95003.00
2023-12-07T18:54:54.647Z,95007.00
2023-12-07T18:55:54.688Z,95004.00
2023-12-07T18:56:54.689Z,95011.00
2023-12-07T18:57:54.714Z,95005.00
2023-12-07T18:58:54.818Z,95012.00
2023-12-07T18:59:54.866Z,95003.00
2023-12-07T19:00:54.902Z,95004.00
2023-12-07T19:01:54.894Z,95006.00
2023-12-07T19:02:55.040Z,95005.00
2023-12-07T19:03:55.012Z,95005.00
2023-12-07T19:04:55.092Z,95006.00
2023-12-07T19:05:55.149Z,95004.00
2023-12-07T19:06:55.076Z,95007.00
2023-12-07T19:07:55.072Z,95002.00
2023-12-07T19:08:55.148Z,94999.00
2023-12-07T19:09:55.149Z,94998.00
2023-12-07T19:10:55.152Z,94993.00
2023-12-07T19:11:55.217Z,94988.00
2023-12-07T19:12:55.113Z,94984.00
2023-12-07T19:13:55.175Z,94981.00
2023-12-07T19:14:55.201Z,94980.00
2023-12-07T19:15:55.186Z,94979.00
2023-12-07T19:16:55.238Z,94979.00
2023-12-07T19:17:55.370Z,94977.00
2023-12-07T19:18:55.324Z,94975.00
2023-12-07T19:19:55.221Z,94975.00
2023-12-07T19:20:55.247Z,94973.00
2023-12-07T19:21:55.236Z,94972.00
2023-12-07T19:22:55.236Z,94974.00
2023-12-07T19:23:55.262Z,94979.00
2023-12-07T19:24:55.193Z,94979.00
2023-12-07T19:25:55.322Z,94978.00
2023-12-07T19:26:55.288Z,94985.00
2023-12-07T19:27:55.218Z,94987.00
2023-12-07T19:28:55.278Z,94992.00
2023-12-07T19:29:55.330Z,94994.00
2023-12-07T19:30:55.294Z,94997.00
2023-12-07T19:31:55.301Z,95000.00
2023-12-07T19:32:55.417Z,95001.00
2023-12-07T19:33:55.528Z,95000.00
2023-12-07T19:34:55.310Z,95003.00
2023-12-07T19:35:55.329Z,95003.00
2023-12-07T19:36:55.344Z,95002.00
2023-12-07T19:37:55.344Z,95004.00
2023-12-07T19:38:55.348Z,95006.00
2023-12-07T19:39:55.281Z,95005.00
2023-12-07T19:40:55.302Z,95001.00
2023-12-07T19:41:55.348Z,94997.00
2023-12-07T19:42:55.309Z,94994.00
2023-12-07T19:43:55.331Z,94993.00
2023-12-07T19:44:55.366Z,94995.00
2023-12-07T19:45:55.341Z,94998.00
2023-12-07T19:46:55.358Z,94995.00
2023-12-07T19:47:55.546Z,94990.00
2023-12-07T19:48:55.428Z,94985.00
2023-12-07T19:49:55.462Z,94980.00
2023-12-07T19:50:55.425Z,94978.00
2023-12-07T19:51:55.386Z,94979.00
2023-12-07T19:52:55.404Z,94978.00
2023-12-07T19:53:55.465Z,94979.00
2023-12-07T19:54:55.395Z,94981.00
2023-12-07T19:55:55.401Z,94974.00
2023-12-07T19:56:55.402Z,94975.00
2023-12-07T19:57:55.419Z,94974.00
2023-12-07T19:58:55.444Z,94972.00
2023-12-07T19:59:55.483Z,94971.00
2023-12-07T20:00:55.559Z,94971.00
2023-12-07T20:01:55.459Z,94971.00
2023-12-07T20:02:55.491Z,94971.00
2023-12-07T20:03:55.490Z,94968.00
2023-12-07T20:04:55.498Z,94970.00
2023-12-07T20:05:55.602Z,94968.00
2023-12-07T20:06:55.505Z,94968.00
2023-12-07T20:07:55.464Z,94965.00
2023-12-07T20:08:55.627Z,94964.00
2023-12-07T20:09:55.494Z,94959.00
2023-12-07T20:10:55.531Z,94962.00
2023-12-07T20:11:55.514Z,94963.00
2023-12-07T20:12:55.552Z,94964.00
2023-12-07T20:13:55.533Z,94961.00
2023-12-07T20:14:55.554Z,94960.00
2023-12-07T20:15:55.564Z,94959.00
2023-12-07T20:16:55.546Z,94957.00
2023-12-07T20:17:55.774Z,94955.00
2023-12-07T20:18:55.887Z,94956.00
2023-12-07T20:19:55.611Z,94954.00
2023-12-07T20:20:55.574Z,94958.00
2023-12-07T20:21:55.625Z,94960.00
2023-12-07T20:22:55.616Z,94956.00
2023-12-07T20:23:55.678Z,94958.00
2023-12-07T20:24:55.575Z,94954.00
2023-12-07T20:25:55.660Z,94952.00
2023-12-07T20:26:55.719Z,94952.00
2023-12-07T20:27:55.618Z,94952.00
2023-12-07T20:28:55.684Z,94953.00
2023-12-07T20:29:55.644Z,94954.00
2023-12-07T20:30:55.663Z,94954.00
2023-12-07T20:31:55.670Z,94954.00
2023-12-07T20:32:55.724Z,94954.00
2023-12-07T20:33:55.748Z,94954.00
2023-12-07T20:34:55.671Z,94957.00
2023-12-07T20:35:55.667Z,94956.00
2023-12-07T20:36:55.694Z,94957.00
2023-12-07T20:37:55.687Z,94956.00
2023-12-07T20:38:55.813Z,94955.00
2023-12-07T20:39:55.719Z,94955.00
2023-12-07T20:40:55.731Z,94955.00
2023-12-07T20:41:55.763Z,94955.00
2023-12-07T20:42:55.755Z,94956.00
2023-12-07T20:43:55.854Z,94954.00
2023-12-07T20:44:55.778Z,94953.00
2023-12-07T20:45:55.824Z,94955.00
2023-12-07T20:46:55.806Z,94955.00
2023-12-07T20:47:55.909Z,94956.00
2023-12-07T20:48:55.860Z,94959.00
2023-12-07T20:49:55.844Z,94958.00
2023-12-07T20:50:55.904Z,94961.00
2023-12-07T20:51:55.857Z,94962.00
2023-12-07T20:52:55.852Z,94961.00
2023-12-07T20:53:55.903Z,94963.00
2023-12-07T20:54:55.906Z,94962.00
2023-12-07T20:55:55.888Z,94958.00
2023-12-07T20:56:56.020Z,94961.00
2023-12-07T20:57:55.916Z,94960.00
2023-12-07T20:58:55.958Z,94961.00
2023-12-07T20:59:56.961Z,94964.00
2023-12-07T21:00:56.053Z,94967.00
2023-12-07T21:01:56.084Z,94970.00
2023-12-07T21:02:56.180Z,94967.00
2023-12-07T21:03:56.102Z,94968.00
2023-12-07T21:04:56.109Z,94969.00
2023-12-07T21:05:56.109Z,94972.00
2023-12-07T21:06:56.099Z,94971.00
2023-12-07T21:07:56.118Z,94970.00
2023-12-07T21:08:56.173Z,94968.00
2023-12-07T21:09:56.138Z,94967.00
2023-12-07T21:10:56.179Z,94969.00
2023-12-07T21:11:56.208Z,94970.00
2023-12-07T21:12:56.195Z,94972.00
2023-12-07T21:13:56.207Z,94973.00
2023-12-07T21:14:56.268Z,94975.00
2023-12-07T21:15:56.275Z,94977.00
2023-12-07T21:16:56.241Z,94973.00
2023-12-07T21:17:56.450Z,94976.00
2023-12-07T21:18:56.396Z,94970.00
2023-12-07T21:19:56.318Z,94968.00
2023-12-07T21:20:56.301Z,94962.00
2023-12-07T21:21:56.289Z,94958.00
2023-12-07T21:22:56.370Z,94953.00
2023-12-07T21:23:56.320Z,94955.00
2023-12-07T21:24:56.321Z,94954.00
2023-12-07T21:25:56.384Z,94952.00
2023-12-07T21:26:56.385Z,94950.00
2023-12-07T21:27:56.401Z,94948.00
2023-12-07T21:28:56.365Z,94945.00
2023-12-07T21:29:56.497Z,94943.00
2023-12-07T21:30:56.482Z,94944.00
2023-12-07T21:31:56.469Z,94944.00
2023-12-07T21:32:56.536Z,94943.00
2023-12-07T21:33:56.628Z,94941.00
2023-12-07T21:34:56.482Z,94940.00
2023-12-07T21:35:56.527Z,94940.00
2023-12-07T21:36:56.535Z,94936.00
2023-12-07T21:37:56.581Z,94930.00
2023-12-07T21:38:56.550Z,94926.00
2023-12-07T21:39:56.581Z,94924.00
2023-12-07T21:40:56.612Z,94921.00
2023-12-07T21:41:56.651Z,94917.00
2023-12-07T21:42:56.619Z,94914.00
2023-12-07T21:43:56.652Z,94912.00
2023-12-07T21:44:56.649Z,94900.00
2023-12-07T21:45:56.676Z,94896.00
2023-12-07T21:46:56.674Z,94891.00
2023-12-07T21:47:56.847Z,94889.00
2023-12-07T21:48:56.976Z,94892.00
2023-12-07T21:49:56.747Z,94894.00
2023-12-07T21:50:56.780Z,94894.00
2023-12-07T21:51:56.767Z,94896.00
2023-12-07T21:52:56.791Z,94894.00
2023-12-07T21:53:56.815Z,94892.00
2023-12-07T21:54:56.925Z,94892.00
2023-12-07T21:55:56.863Z,94888.00
2023-12-07T21:56:56.908Z,94884.00
2023-12-07T21:57:56.913Z,94885.00
2023-12-07T21:58:56.911Z,94882.00
2023-12-07T21:59:56.966Z,94880.00
2023-12-07T22:00:57.072Z,94878.00
2023-12-07T22:01:56.964Z,94873.00
2023-12-07T22:02:57.039Z,94870.00
2023-12-07T22:03:57.081Z,94869.00
2023-12-07T22:04:57.023Z,94864.00
2023-12-07T22:05:57.083Z,94859.00
2023-12-07T22:06:57.091Z,94856.00
2023-12-07T22:07:57.119Z,94858.00
2023-12-07T22:08:57.131Z,94855.00
2023-12-07T22:09:57.460Z,94851.00
2023-12-07T22:10:57.162Z,94851.00
2023-12-07T22:11:57.221Z,94849.00
2023-12-07T22:12:57.227Z,94847.00
2023-12-07T22:13:57.246Z,94844.00
2023-12-07T22:14:57.245Z,94846.00
2023-12-07T22:15:57.257Z,94847.00
2023-12-07T22:16:57.239Z,94850.00
2023-12-07T22:17:57.364Z,94847.00
2023-12-07T22:18:57.484Z,94849.00
2023-12-07T22:19:57.345Z,94846.00
2023-12-07T22:20:57.419Z,94846.00
2023-12-07T22:21:57.402Z,94846.00
2023-12-07T22:22:57.397Z,94847.00
2023-12-07T22:23:57.460Z,94847.00
2023-12-07T22:24:57.416Z,94846.00
2023-12-07T22:25:57.488Z,94848.00
2023-12-07T22:26:57.556Z,94850.00
2023-12-07T22:27:57.479Z,94848.00
2023-12-07T22:28:57.530Z,94848.00
2023-12-07T22:29:57.536Z,94848.00
2023-12-07T22:30:57.567Z,94848.00
2023-12-07T22:31:57.573Z,94850.00
2023-12-07T22:32:57.763Z,94851.00
2023-12-07T22:34:00.841Z,94855.00
2023-12-07T22:34:57.780Z,94853.00
2023-12-07T22:35:57.761Z,94851.00
2023-12-07T22:36:57.613Z,94846.00
2023-12-07T22:37:57.602Z,94848.00
2023-12-07T22:38:57.657Z,94851.00
2023-12-07T22:39:57.622Z,94852.00
2023-12-07T22:40:57.569Z,94852.00
2023-12-07T22:41:57.632Z,94853.00
2023-12-07T22:42:57.622Z,94851.00
2023-12-07T22:43:57.660Z,94847.00
2023-12-07T22:44:57.608Z,94842.00
2023-12-07T22:45:57.646Z,94837.00
2023-12-07T22:46:57.598Z,94833.00
2023-12-07T22:47:57.798Z,94831.00
2023-12-07T22:48:57.790Z,94833.00
2023-12-07T22:49:57.593Z,94830.00
2023-12-07T22:50:57.663Z,94827.00
2023-12-07T22:51:57.642Z,94824.00
2023-12-07T22:52:57.599Z,94818.00
2023-12-07T22:53:57.663Z,94820.00
2023-12-07T22:54:57.623Z,94817.00
2023-12-07T22:55:57.626Z,94818.00
2023-12-07T22:56:57.649Z,94815.00
2023-12-07T22:57:57.639Z,94813.00
2023-12-07T22:58:57.637Z,94815.00
2023-12-07T22:59:57.666Z,94815.00
2023-12-07T23:00:57.692Z,94816.00
2023-12-07T23:01:57.674Z,94815.00
2023-12-07T23:02:57.743Z,94815.00
2023-12-07T23:03:57.668Z,94814.00
2023-12-07T23:04:57.740Z,94818.00
2023-12-07T23:05:57.675Z,94817.00
2023-12-07T23:06:57.631Z,94818.00
2023-12-07T23:07:57.664Z,94816.00
2023-12-07T23:08:57.780Z,94817.00
2023-12-07T23:09:57.673Z,94816.00
2023-12-07T23:10:57.622Z,94817.00
2023-12-07T23:11:57.737Z,94817.00
2023-12-07T23:12:57.640Z,94810.00
2023-12-07T23:13:57.654Z,94810.00
2023-12-07T23:14:57.653Z,94804.00
2023-12-07T23:15:57.660Z,94805.00
2023-12-07T23:16:57.661Z,94802.00
2023-12-07T23:17:57.817Z,94804.00
2023-12-07T23:18:57.843Z,94805.00
2023-12-07T23:19:57.686Z,94804.00
2023-12-07T23:20:57.727Z,94803.00
2023-12-07T23:21:57.729Z,94803.00
2023-12-07T23:22:57.648Z,94804.00
2023-12-07T23:23:57.678Z,94804.00
2023-12-07T23:24:57.643Z,94809.00
2023-12-07T23:25:57.730Z,94812.00
2023-12-07T23:26:57.790Z,94810.00
2023-12-07T23:27:57.807Z,94805.00
2023-12-07T23:28:57.751Z,94801.00
2023-12-07T23:29:57.897Z,94799.00
2023-12-07T23:30:57.822Z,94802.00
2023-12-07T23:31:57.891Z,94801.00
2023-12-07T23:32:58.000Z,94801.00
2023-12-07T23:33:58.091Z,94801.00
2023-12-07T23:34:57.893Z,94803.00
2023-12-07T23:35:57.958Z,94799.00
2023-12-07T23:36:57.980Z,94799.00
2023-12-07T23:37:58.053Z,94797.00
2023-12-07T23:38:58.086Z,94801.00
2023-12-07T23:39:58.030Z,94802.00
2023-12-07T23:40:58.078Z,94801.00
2023-12-07T23:41:58.122Z,94794.00
2023-12-07T23:42:58.093Z,94794.00
2023-12-07T23:43:58.166Z,94794.00
2023-12-07T23:44:58.163Z,94798.00
2023-12-07T23:45:58.175Z,94795.00
2023-12-07T23:46:58.213Z,94795.00
2023-12-07T23:47:58.344Z,94796.00
2023-12-07T23:48:58.348Z,94796.00
2023-12-07T23:49:58.317Z,94796.00
2023-12-07T23:50:58.375Z,94786.00
2023-12-07T23:51:58.309Z,94783.00
2023-12-07T23:52:58.332Z,94781.00
2023-12-07T23:53:58.441Z,94786.00
2023-12-07T23:54:58.351Z,94788.00
2023-12-07T23:55:58.429Z,94786.00
2023-12-07T23:56:58.458Z,94787.00
2023-12-07T23:57:58.451Z,94780.00
2023-12-07T23:58:58.525Z,94775.00
2023-12-07T23:59:58.532Z,94773.00
